sensor_id;sensor_type;location;lat;lon;timestamp;pressure;altitude;pressure_sealevel;temperature;humidity
9822;BME280;4950;46.042;14.472;2024-02-04T00:01:54;98651.00;;;3.83;85.39
9822;BME280;4950;46.042;14.472;2024-02-04T00:04:22;98648.78;;;3.78;85.83
9822;BME280;4950;46.042;14.472;2024-02-04T00:06:49;98646.31;;;3.76;86.11
9822;BME280;4950;46.042;14.472;2024-02-04T00:09:16;98638.63;;;3.76;86.20
9822;BME280;4950;46.042;14.472;2024-02-04T00:11:43;98647.59;;;3.71;86.10
9822;BME280;4950;46.042;14.472;2024-02-04T00:14:11;98643.91;;;3.75;86.34
9822;BME280;4950;46.042;14.472;2024-02-04T00:16:38;98640.41;;;3.87;85.77
9822;BME280;4950;46.042;14.472;2024-02-04T00:19:04;98630.16;;;3.87;85.74
9822;BME280;4950;46.042;14.472;2024-02-04T00:21:32;98635.28;;;3.87;85.61
9822;BME280;4950;46.042;14.472;2024-02-04T00:23:59;98637.03;;;3.87;85.73
9822;BME280;4950;46.042;14.472;2024-02-04T00:26:26;98633.31;;;3.91;85.00
9822;BME280;4950;46.042;14.472;2024-02-04T00:28:53;98637.28;;;3.95;84.63
9822;BME280;4950;46.042;14.472;2024-02-04T00:31:20;98644.03;;;3.96;84.60
9822;BME280;4950;46.042;14.472;2024-02-04T00:33:46;98631.44;;;3.93;85.02
9822;BME280;4950;46.042;14.472;2024-02-04T00:36:13;98627.31;;;3.79;85.80
9822;BME280;4950;46.042;14.472;2024-02-04T00:38:41;98624.63;;;3.81;84.76
9822;BME280;4950;46.042;14.472;2024-02-04T00:41:08;98619.34;;;3.71;85.58
9822;BME280;4950;46.042;14.472;2024-02-04T00:43:35;98626.38;;;3.80;85.04
9822;BME280;4950;46.042;14.472;2024-02-04T00:46:02;98623.78;;;3.69;85.02
9822;BME280;4950;46.042;14.472;2024-02-04T00:48:29;98615.59;;;3.64;85.49
9822;BME280;4950;46.042;14.472;2024-02-04T00:50:56;98618.44;;;3.72;85.00
9822;BME280;4950;46.042;14.472;2024-02-04T00:53:22;98634.53;;;3.74;84.60
9822;BME280;4950;46.042;14.472;2024-02-04T00:55:52;98633.34;;;3.67;84.85
9822;BME280;4950;46.042;14.472;2024-02-04T00:58:19;98625.44;;;3.70;85.00
9822;BME280;4950;46.042;14.472;2024-02-04T01:00:46;98631.31;;;3.59;85.69
9822;BME280;4950;46.042;14.472;2024-02-04T01:03:14;98629.16;;;3.66;85.48
9822;BME280;4950;46.042;14.472;2024-02-04T01:05:41;98632.53;;;3.66;85.85
9822;BME280;4950;46.042;14.472;2024-02-04T01:08:08;98629.47;;;3.61;85.49
9822;BME280;4950;46.042;14.472;2024-02-04T01:10:34;98639.06;;;3.70;85.13
9822;BME280;4950;46.042;14.472;2024-02-04T01:13:03;98640.22;;;3.66;84.99
9822;BME280;4950;46.042;14.472;2024-02-04T01:15:30;98640.22;;;3.66;85.17
9822;BME280;4950;46.042;14.472;2024-02-04T01:17:56;98637.31;;;3.71;84.85
9822;BME280;4950;46.042;14.472;2024-02-04T01:20:23;98625.63;;;3.67;85.01
9822;BME280;4950;46.042;14.472;2024-02-04T01:22:50;98625.88;;;3.64;84.82
9822;BME280;4950;46.042;14.472;2024-02-04T01:25:17;98620.16;;;3.60;85.41
9822;BME280;4950;46.042;14.472;2024-02-04T01:27:43;98625.63;;;3.55;85.68
9822;BME280;4950;46.042;14.472;2024-02-04T01:30:11;98623.31;;;3.64;85.17
9822;BME280;4950;46.042;14.472;2024-02-04T01:32:38;98634.59;;;3.61;85.57
9822;BME280;4950;46.042;14.472;2024-02-04T01:35:06;98634.50;;;3.63;85.60
9822;BME280;4950;46.042;14.472;2024-02-04T01:37:33;98632.63;;;3.65;85.32
9822;BME280;4950;46.042;14.472;2024-02-04T01:40:00;98632.88;;;3.62;85.57
9822;BME280;4950;46.042;14.472;2024-02-04T01:42:26;98632.28;;;3.58;85.89
9822;BME280;4950;46.042;14.472;2024-02-04T01:44:53;98638.31;;;3.57;85.17
9822;BME280;4950;46.042;14.472;2024-02-04T01:47:21;98633.16;;;3.46;85.58
9822;BME280;4950;46.042;14.472;2024-02-04T01:49:49;98636.47;;;3.59;85.36
9822;BME280;4950;46.042;14.472;2024-02-04T01:52:16;98633.19;;;3.57;85.56
9822;BME280;4950;46.042;14.472;2024-02-04T01:54:44;98630.41;;;3.60;84.84
9822;BME280;4950;46.042;14.472;2024-02-04T01:57:12;98630.16;;;3.63;85.12
9822;BME280;4950;46.042;14.472;2024-02-04T01:59:39;98633.69;;;3.62;84.94
9822;BME280;4950;46.042;14.472;2024-02-04T02:02:06;98621.06;;;3.59;85.17
9822;BME280;4950;46.042;14.472;2024-02-04T02:04:34;98613.00;;;3.52;85.40
9822;BME280;4950;46.042;14.472;2024-02-04T02:07:02;98615.81;;;3.61;85.28
9822;BME280;4950;46.042;14.472;2024-02-04T02:09:28;98619.28;;;3.48;85.54
9822;BME280;4950;46.042;14.472;2024-02-04T02:12:01;98635.16;;;3.53;85.14
9822;BME280;4950;46.042;14.472;2024-02-04T02:14:33;98637.00;;;3.51;84.96
9822;BME280;4950;46.042;14.472;2024-02-04T02:17:02;98630.91;;;3.41;85.67
9822;BME280;4950;46.042;14.472;2024-02-04T02:19:40;98620.19;;;3.47;85.29
9822;BME280;4950;46.042;14.472;2024-02-04T02:22:25;98613.66;;;3.43;85.34
9822;BME280;4950;46.042;14.472;2024-02-04T02:24:56;98613.88;;;3.40;84.76
9822;BME280;4950;46.042;14.472;2024-02-04T02:27:24;98623.31;;;3.40;85.52
9822;BME280;4950;46.042;14.472;2024-02-04T02:29:51;98626.94;;;3.37;84.86
9822;BME280;4950;46.042;14.472;2024-02-04T02:32:18;98632.16;;;3.35;85.18
9822;BME280;4950;46.042;14.472;2024-02-04T02:34:45;98632.16;;;3.35;84.62
9822;BME280;4950;46.042;14.472;2024-02-04T02:37:21;98634.47;;;3.27;85.29
9822;BME280;4950;46.042;14.472;2024-02-04T02:39:55;98634.25;;;3.30;85.57
9822;BME280;4950;46.042;14.472;2024-02-04T02:42:23;98636.94;;;3.29;85.54
9822;BME280;4950;46.042;14.472;2024-02-04T02:44:52;98629.00;;;3.32;84.92
9822;BME280;4950;46.042;14.472;2024-02-04T02:47:20;98623.38;;;3.27;85.35
9822;BME280;4950;46.042;14.472;2024-02-04T02:49:47;98620.59;;;3.30;85.33
9822;BME280;4950;46.042;14.472;2024-02-04T02:52:14;98619.88;;;3.28;84.91
9822;BME280;4950;46.042;14.472;2024-02-04T02:54:41;98626.56;;;3.30;84.89
9822;BME280;4950;46.042;14.472;2024-02-04T02:57:09;98625.88;;;3.15;85.22
9822;BME280;4950;46.042;14.472;2024-02-04T02:59:35;98617.28;;;3.16;85.89
9822;BME280;4950;46.042;14.472;2024-02-04T03:02:02;98608.53;;;3.19;85.57
9822;BME280;4950;46.042;14.472;2024-02-04T03:04:29;98620.75;;;3.15;84.67
9822;BME280;4950;46.042;14.472;2024-02-04T03:06:56;98616.44;;;3.16;84.80
9822;BME280;4950;46.042;14.472;2024-02-04T03:09:22;98615.03;;;3.12;84.87
9822;BME280;4950;46.042;14.472;2024-02-04T03:11:49;98619.72;;;2.94;85.41
9822;BME280;4950;46.042;14.472;2024-02-04T03:14:17;98619.53;;;2.84;86.54
9822;BME280;4950;46.042;14.472;2024-02-04T03:16:44;98618.44;;;2.75;87.06
9822;BME280;4950;46.042;14.472;2024-02-04T03:19:11;98617.13;;;2.70;86.79
9822;BME280;4950;46.042;14.472;2024-02-04T03:21:38;98617.16;;;2.81;85.65
9822;BME280;4950;46.042;14.472;2024-02-04T03:24:05;98616.75;;;2.87;85.43
9822;BME280;4950;46.042;14.472;2024-02-04T03:26:32;98622.28;;;2.94;84.93
9822;BME280;4950;46.042;14.472;2024-02-04T03:28:59;98631.00;;;2.91;84.81
9822;BME280;4950;46.042;14.472;2024-02-04T03:31:27;98635.69;;;2.97;84.83
9822;BME280;4950;46.042;14.472;2024-02-04T03:33:53;98635.00;;;2.83;84.80
9822;BME280;4950;46.042;14.472;2024-02-04T03:36:21;98637.38;;;2.86;84.07
9822;BME280;4950;46.042;14.472;2024-02-04T03:38:49;98634.72;;;2.74;85.64
9822;BME280;4950;46.042;14.472;2024-02-04T03:41:15;98636.47;;;2.74;85.43
9822;BME280;4950;46.042;14.472;2024-02-04T03:43:42;98638.63;;;2.67;86.24
9822;BME280;4950;46.042;14.472;2024-02-04T03:46:12;98632.69;;;2.67;86.50
9822;BME280;4950;46.042;14.472;2024-02-04T03:48:41;98622.75;;;2.62;85.41
9822;BME280;4950;46.042;14.472;2024-02-04T03:51:07;98618.84;;;2.69;85.36
9822;BME280;4950;46.042;14.472;2024-02-04T03:53:34;98620.69;;;2.67;84.72
9822;BME280;4950;46.042;14.472;2024-02-04T03:56:01;98608.41;;;2.60;85.82
9822;BME280;4950;46.042;14.472;2024-02-04T03:58:28;98621.25;;;2.47;87.05
9822;BME280;4950;46.042;14.472;2024-02-04T04:00:55;98627.59;;;2.54;86.24
9822;BME280;4950;46.042;14.472;2024-02-04T04:03:22;98621.53;;;2.55;86.12
9822;BME280;4950;46.042;14.472;2024-02-04T04:05:50;98622.56;;;2.52;86.21
9822;BME280;4950;46.042;14.472;2024-02-04T04:08:17;98608.28;;;2.61;85.78
9822;BME280;4950;46.042;14.472;2024-02-04T04:10:44;98599.19;;;2.57;85.72
9822;BME280;4950;46.042;14.472;2024-02-04T04:13:11;98603.59;;;2.42;85.43
9822;BME280;4950;46.042;14.472;2024-02-04T04:15:38;98598.59;;;2.41;86.24
9822;BME280;4950;46.042;14.472;2024-02-04T04:18:06;98605.06;;;2.46;85.79
9822;BME280;4950;46.042;14.472;2024-02-04T04:20:33;98606.91;;;2.44;85.45
9822;BME280;4950;46.042;14.472;2024-02-04T04:23:01;98611.41;;;2.41;85.62
9822;BME280;4950;46.042;14.472;2024-02-04T04:25:27;98607.91;;;2.42;84.72
9822;BME280;4950;46.042;14.472;2024-02-04T04:27:54;98607.72;;;2.45;85.78
9822;BME280;4950;46.042;14.472;2024-02-04T04:30:23;98600.47;;;2.39;85.72
9822;BME280;4950;46.042;14.472;2024-02-04T04:32:50;98596.03;;;2.41;86.31
9822;BME280;4950;46.042;14.472;2024-02-04T04:35:16;98596.53;;;2.46;86.45
9822;BME280;4950;46.042;14.472;2024-02-04T04:37:43;98589.16;;;2.41;86.09
9822;BME280;4950;46.042;14.472;2024-02-04T04:40:12;98591.84;;;2.40;86.02
9822;BME280;4950;46.042;14.472;2024-02-04T04:42:38;98584.75;;;2.30;85.91
9822;BME280;4950;46.042;14.472;2024-02-04T04:45:06;98589.50;;;2.36;85.81
9822;BME280;4950;46.042;14.472;2024-02-04T04:47:34;98598.50;;;2.29;86.21
9822;BME280;4950;46.042;14.472;2024-02-04T04:50:01;98602.69;;;2.30;86.37
9822;BME280;4950;46.042;14.472;2024-02-04T04:52:27;98598.94;;;2.23;86.41
9822;BME280;4950;46.042;14.472;2024-02-04T04:54:54;98597.69;;;2.16;85.73
9822;BME280;4950;46.042;14.472;2024-02-04T04:57:23;98597.28;;;2.22;85.86
9822;BME280;4950;46.042;14.472;2024-02-04T04:59:50;98582.31;;;2.16;86.03
9822;BME280;4950;46.042;14.472;2024-02-04T05:02:16;98593.31;;;2.05;85.77
9822;BME280;4950;46.042;14.472;2024-02-04T05:04:43;98574.66;;;2.16;86.04
9822;BME280;4950;46.042;14.472;2024-02-04T05:07:10;98582.66;;;2.11;86.12
9822;BME280;4950;46.042;14.472;2024-02-04T05:09:37;98568.00;;;1.75;86.63
9822;BME280;4950;46.042;14.472;2024-02-04T05:12:04;98564.88;;;1.44;89.15
9822;BME280;4950;46.042;14.472;2024-02-04T05:14:32;98567.22;;;1.07;90.73
9822;BME280;4950;46.042;14.472;2024-02-04T05:16:59;98562.94;;;1.08;91.52
9822;BME280;4950;46.042;14.472;2024-02-04T05:19:26;98564.09;;;1.16;92.16
9822;BME280;4950;46.042;14.472;2024-02-04T05:21:53;98587.44;;;1.25;91.83
9822;BME280;4950;46.042;14.472;2024-02-04T05:24:19;98615.16;;;1.31;92.50
9822;BME280;4950;46.042;14.472;2024-02-04T05:26:46;98607.31;;;1.34;92.73
9822;BME280;4950;46.042;14.472;2024-02-04T05:29:13;98589.00;;;1.40;91.45
9822;BME280;4950;46.042;14.472;2024-02-04T05:31:44;98588.25;;;1.52;91.25
9822;BME280;4950;46.042;14.472;2024-02-04T05:34:11;98607.28;;;1.61;91.12
9822;BME280;4950;46.042;14.472;2024-02-04T05:36:38;98606.25;;;1.64;90.83
9822;BME280;4950;46.042;14.472;2024-02-04T05:39:10;98588.78;;;1.70;90.69
9822;BME280;4950;46.042;14.472;2024-02-04T05:41:37;98609.16;;;1.72;90.96
9822;BME280;4950;46.042;14.472;2024-02-04T05:44:04;98602.50;;;1.82;90.20
9822;BME280;4950;46.042;14.472;2024-02-04T05:46:31;98604.66;;;1.88;90.19
9822;BME280;4950;46.042;14.472;2024-02-04T05:48:59;98608.13;;;1.87;90.04
9822;BME280;4950;46.042;14.472;2024-02-04T05:51:25;98611.53;;;1.88;90.63
9822;BME280;4950;46.042;14.472;2024-02-04T05:53:52;98604.66;;;1.88;90.71
9822;BME280;4950;46.042;14.472;2024-02-04T05:56:19;98608.56;;;1.94;89.57
9822;BME280;4950;46.042;14.472;2024-02-04T05:58:46;98611.13;;;1.94;89.87
9822;BME280;4950;46.042;14.472;2024-02-04T06:01:15;98612.94;;;2.05;89.67
9822;BME280;4950;46.042;14.472;2024-02-04T06:03:42;98616.03;;;2.10;88.60
9822;BME280;4950;46.042;14.472;2024-02-04T06:06:14;98607.63;;;2.08;88.47
9822;BME280;4950;46.042;14.472;2024-02-04T06:08:41;98611.72;;;2.10;89.38
9822;BME280;4950;46.042;14.472;2024-02-04T06:11:09;98626.06;;;2.00;88.43
9822;BME280;4950;46.042;14.472;2024-02-04T06:13:36;98629.66;;;1.97;89.39
9822;BME280;4950;46.042;14.472;2024-02-04T06:16:04;98648.78;;;2.05;89.17
9822;BME280;4950;46.042;14.472;2024-02-04T06:18:31;98648.78;;;2.05;88.87
9822;BME280;4950;46.042;14.472;2024-02-04T06:20:57;98639.38;;;1.92;89.02
9822;BME280;4950;46.042;14.472;2024-02-04T06:23:25;98644.19;;;1.97;89.14
9822;BME280;4950;46.042;14.472;2024-02-04T06:25:52;98635.59;;;1.98;88.73
9822;BME280;4950;46.042;14.472;2024-02-04T06:28:19;98635.16;;;1.91;89.42
9822;BME280;4950;46.042;14.472;2024-02-04T06:30:45;98641.81;;;1.81;89.44
9822;BME280;4950;46.042;14.472;2024-02-04T06:33:12;98649.19;;;1.86;89.59
9822;BME280;4950;46.042;14.472;2024-02-04T06:35:39;98645.22;;;1.94;89.24
9822;BME280;4950;46.042;14.472;2024-02-04T06:38:05;98638.97;;;1.86;89.96
9822;BME280;4950;46.042;14.472;2024-02-04T06:40:33;98639.06;;;1.84;90.44
9822;BME280;4950;46.042;14.472;2024-02-04T06:43:02;98640.00;;;1.96;90.17
9822;BME280;4950;46.042;14.472;2024-02-04T06:45:29;98645.03;;;1.97;90.41
9822;BME280;4950;46.042;14.472;2024-02-04T06:47:55;98652.47;;;2.01;90.37
9822;BME280;4950;46.042;14.472;2024-02-04T06:50:22;98659.34;;;2.00;89.64
9822;BME280;4950;46.042;14.472;2024-02-04T06:52:49;98654.31;;;1.98;90.55
9822;BME280;4950;46.042;14.472;2024-02-04T06:55:15;98665.59;;;2.09;89.82
9822;BME280;4950;46.042;14.472;2024-02-04T06:57:43;98667.25;;;2.10;89.34
9822;BME280;4950;46.042;14.472;2024-02-04T07:00:12;98672.28;;;2.11;89.06
9822;BME280;4950;46.042;14.472;2024-02-04T07:02:40;98667.63;;;1.91;89.49
9822;BME280;4950;46.042;14.472;2024-02-04T07:05:07;98684.81;;;1.89;89.55
9822;BME280;4950;46.042;14.472;2024-02-04T07:07:35;98680.72;;;1.86;90.13
9822;BME280;4950;46.042;14.472;2024-02-04T07:10:02;98681.13;;;1.80;89.59
9822;BME280;4950;46.042;14.472;2024-02-04T07:12:32;98676.81;;;1.81;90.48
9822;BME280;4950;46.042;14.472;2024-02-04T07:15:00;98672.84;;;1.89;89.32
9822;BME280;4950;46.042;14.472;2024-02-04T07:17:27;98678.59;;;1.93;90.56
9822;BME280;4950;46.042;14.472;2024-02-04T07:19:54;98677.19;;;2.02;90.17
9822;BME280;4950;46.042;14.472;2024-02-04T07:22:20;98678.41;;;2.09;91.19
9822;BME280;4950;46.042;14.472;2024-02-04T07:24:47;98667.84;;;2.01;92.00
9822;BME280;4950;46.042;14.472;2024-02-04T07:27:14;98655.97;;;2.00;92.07
9822;BME280;4950;46.042;14.472;2024-02-04T07:29:41;98668.00;;;1.72;91.11
9822;BME280;4950;46.042;14.472;2024-02-04T07:32:09;98657.78;;;1.85;91.49
9822;BME280;4950;46.042;14.472;2024-02-04T07:34:35;98666.00;;;1.90;91.07
9822;BME280;4950;46.042;14.472;2024-02-04T07:37:02;98662.22;;;1.95;90.68
9822;BME280;4950;46.042;14.472;2024-02-04T07:39:29;98665.34;;;1.73;89.82
9822;BME280;4950;46.042;14.472;2024-02-04T07:41:57;98662.00;;;1.86;90.20
9822;BME280;4950;46.042;14.472;2024-02-04T07:44:25;98673.84;;;1.74;90.05
9822;BME280;4950;46.042;14.472;2024-02-04T07:46:52;98674.91;;;1.84;91.00
9822;BME280;4950;46.042;14.472;2024-02-04T07:49:20;98672.53;;;1.81;91.43
9822;BME280;4950;46.042;14.472;2024-02-04T07:51:47;98671.13;;;1.90;91.67
9822;BME280;4950;46.042;14.472;2024-02-04T07:54:13;98668.25;;;1.94;92.75
9822;BME280;4950;46.042;14.472;2024-02-04T07:56:40;98666.84;;;2.03;91.95
9822;BME280;4950;46.042;14.472;2024-02-04T07:59:08;98685.38;;;2.07;92.17
9822;BME280;4950;46.042;14.472;2024-02-04T08:01:34;98694.16;;;2.03;92.30
9822;BME280;4950;46.042;14.472;2024-02-04T08:04:01;98675.97;;;2.07;91.67
9822;BME280;4950;46.042;14.472;2024-02-04T08:06:30;98664.28;;;2.03;91.51
9822;BME280;4950;46.042;14.472;2024-02-04T08:08:59;98666.22;;;2.00;91.60
9822;BME280;4950;46.042;14.472;2024-02-04T08:11:26;98671.03;;;2.04;92.52
9822;BME280;4950;46.042;14.472;2024-02-04T08:13:53;98676.91;;;2.19;92.46
9822;BME280;4950;46.042;14.472;2024-02-04T08:16:20;98681.72;;;2.36;92.42
9822;BME280;4950;46.042;14.472;2024-02-04T08:18:47;98654.03;;;2.54;92.48
9822;BME280;4950;46.042;14.472;2024-02-04T08:21:13;98654.44;;;2.74;91.69
9822;BME280;4950;46.042;14.472;2024-02-04T08:23:41;98672.56;;;2.84;91.16
9822;BME280;4950;46.042;14.472;2024-02-04T08:26:10;98672.66;;;2.95;91.01
9822;BME280;4950;46.042;14.472;2024-02-04T08:28:36;98671.16;;;3.16;90.71
9822;BME280;4950;46.042;14.472;2024-02-04T08:31:03;98675.69;;;3.37;90.20
9822;BME280;4950;46.042;14.472;2024-02-04T08:33:29;98676.66;;;3.47;89.68
9822;BME280;4950;46.042;14.472;2024-02-04T08:35:57;98678.91;;;3.52;89.45
9822;BME280;4950;46.042;14.472;2024-02-04T08:38:24;98664.28;;;3.65;89.82
9822;BME280;4950;46.042;14.472;2024-02-04T08:40:52;98660.72;;;3.90;88.78
9822;BME280;4950;46.042;14.472;2024-02-04T08:43:19;98674.69;;;4.10;87.58
9822;BME280;4950;46.042;14.472;2024-02-04T08:45:46;98678.56;;;4.27;87.10
9822;BME280;4950;46.042;14.472;2024-02-04T08:48:12;98681.63;;;4.44;85.34
9822;BME280;4950;46.042;14.472;2024-02-04T08:50:39;98682.56;;;4.54;85.22
9822;BME280;4950;46.042;14.472;2024-02-04T08:53:06;98673.59;;;4.60;85.62
9822;BME280;4950;46.042;14.472;2024-02-04T08:55:33;98671.38;;;4.78;85.58
9822;BME280;4950;46.042;14.472;2024-02-04T08:58:01;98668.91;;;4.99;84.38
9822;BME280;4950;46.042;14.472;2024-02-04T09:00:27;98684.75;;;5.26;82.62
9822;BME280;4950;46.042;14.472;2024-02-04T09:02:54;98687.06;;;5.41;82.40
9822;BME280;4950;46.042;14.472;2024-02-04T09:05:21;98683.38;;;5.54;82.11
9822;BME280;4950;46.042;14.472;2024-02-04T09:07:48;98687.78;;;5.75;81.49
9822;BME280;4950;46.042;14.472;2024-02-04T09:10:14;98683.97;;;5.90;80.34
9822;BME280;4950;46.042;14.472;2024-02-04T09:12:42;98688.91;;;6.15;79.69
9822;BME280;4950;46.042;14.472;2024-02-04T09:15:10;98692.09;;;6.28;79.42
9822;BME280;4950;46.042;14.472;2024-02-04T09:17:37;98689.72;;;6.36;79.35
9822;BME280;4950;46.042;14.472;2024-02-04T09:20:04;98689.81;;;6.56;77.89
9822;BME280;4950;46.042;14.472;2024-02-04T09:22:31;98690.41;;;6.69;77.67
9822;BME280;4950;46.042;14.472;2024-02-04T09:24:58;98681.34;;;6.75;76.82
9822;BME280;4950;46.042;14.472;2024-02-04T09:27:25;98681.94;;;6.88;76.94
9822;BME280;4950;46.042;14.472;2024-02-04T09:29:51;98689.41;;;6.91;76.67
9822;BME280;4950;46.042;14.472;2024-02-04T09:32:21;98679.69;;;7.04;76.77
9822;BME280;4950;46.042;14.472;2024-02-04T09:34:48;98677.28;;;7.32;77.07
9822;BME280;4950;46.042;14.472;2024-02-04T09:37:15;98687.41;;;7.55;75.46
9822;BME280;4950;46.042;14.472;2024-02-04T09:39:42;98674.63;;;7.63;74.71
9822;BME280;4950;46.042;14.472;2024-02-04T09:42:09;98661.81;;;7.81;74.92
9822;BME280;4950;46.042;14.472;2024-02-04T09:44:37;98669.16;;;8.15;73.44
9822;BME280;4950;46.042;14.472;2024-02-04T09:47:05;98678.63;;;8.43;73.36
9822;BME280;4950;46.042;14.472;2024-02-04T09:49:35;98668.50;;;8.60;72.63
9822;BME280;4950;46.042;14.472;2024-02-04T09:52:06;98673.47;;;8.81;69.80
9822;BME280;4950;46.042;14.472;2024-02-04T09:54:34;98664.84;;;8.90;70.07
9822;BME280;4950;46.042;14.472;2024-02-04T09:57:05;98660.63;;;9.17;68.37
9822;BME280;4950;46.042;14.472;2024-02-04T09:59:33;98667.16;;;9.39;67.37
9822;BME280;4950;46.042;14.472;2024-02-04T10:02:01;98653.16;;;9.49;65.23
9822;BME280;4950;46.042;14.472;2024-02-04T10:04:29;98658.03;;;9.53;66.34
9822;BME280;4950;46.042;14.472;2024-02-04T10:06:57;98649.19;;;9.55;64.62
9822;BME280;4950;46.042;14.472;2024-02-04T10:09:24;98648.00;;;9.49;64.41
9822;BME280;4950;46.042;14.472;2024-02-04T10:11:51;98647.97;;;9.67;64.80
9822;BME280;4950;46.042;14.472;2024-02-04T10:14:18;98645.81;;;9.81;64.63
9822;BME280;4950;46.042;14.472;2024-02-04T10:16:45;98642.63;;;9.87;63.08
9822;BME280;4950;46.042;14.472;2024-02-04T10:19:12;98634.94;;;10.03;63.99
9822;BME280;4950;46.042;14.472;2024-02-04T10:21:39;98640.81;;;10.05;62.80
9822;BME280;4950;46.042;14.472;2024-02-04T10:24:07;98634.06;;;10.13;62.93
9822;BME280;4950;46.042;14.472;2024-02-04T10:26:35;98625.31;;;10.40;62.76
9822;BME280;4950;46.042;14.472;2024-02-04T10:29:03;98616.31;;;10.60;62.06
9822;BME280;4950;46.042;14.472;2024-02-04T10:31:30;98619.50;;;10.80;60.99
9822;BME280;4950;46.042;14.472;2024-02-04T10:33:56;98613.06;;;11.01;61.13
9822;BME280;4950;46.042;14.472;2024-02-04T10:36:23;98609.81;;;11.07;59.70
9822;BME280;4950;46.042;14.472;2024-02-04T10:38:50;98606.44;;;11.15;59.55
9822;BME280;4950;46.042;14.472;2024-02-04T10:41:18;98599.47;;;11.32;59.27
9822;BME280;4950;46.042;14.472;2024-02-04T10:43:46;98596.38;;;11.36;58.52
9822;BME280;4950;46.042;14.472;2024-02-04T10:46:18;98591.38;;;11.43;59.27
9822;BME280;4950;46.042;14.472;2024-02-04T10:48:50;98585.03;;;11.62;58.61
9822;BME280;4950;46.042;14.472;2024-02-04T10:51:21;98584.72;;;11.57;57.86
9822;BME280;4950;46.042;14.472;2024-02-04T10:53:51;98585.84;;;11.54;58.24
9822;BME280;4950;46.042;14.472;2024-02-04T10:56:27;98585.69;;;11.64;58.14
9822;BME280;4950;46.042;14.472;2024-02-04T10:58:56;98570.38;;;11.77;57.67
9822;BME280;4950;46.042;14.472;2024-02-04T11:01:24;98556.75;;;11.92;57.83
9822;BME280;4950;46.042;14.472;2024-02-04T11:03:53;98553.78;;;11.95;57.19
9822;BME280;4950;46.042;14.472;2024-02-04T11:06:20;98557.97;;;12.12;57.05
9822;BME280;4950;46.042;14.472;2024-02-04T11:08:49;98543.66;;;12.24;56.60
9822;BME280;4950;46.042;14.472;2024-02-04T11:11:16;98544.38;;;12.41;56.24
9822;BME280;4950;46.042;14.472;2024-02-04T11:13:45;98532.09;;;12.58;55.53
9822;BME280;4950;46.042;14.472;2024-02-04T11:16:20;98535.47;;;12.67;55.05
9822;BME280;4950;46.042;14.472;2024-02-04T11:19:11;98531.94;;;12.91;54.91
9822;BME280;4950;46.042;14.472;2024-02-04T11:21:55;98524.69;;;13.01;53.48
9822;BME280;4950;46.042;14.472;2024-02-04T11:24:37;98513.16;;;13.19;53.55
9822;BME280;4950;46.042;14.472;2024-02-04T11:27:08;98509.34;;;13.30;53.06
9822;BME280;4950;46.042;14.472;2024-02-04T11:29:36;98492.63;;;13.39;52.59
9822;BME280;4950;46.042;14.472;2024-02-04T11:32:03;98501.91;;;13.41;51.80
9822;BME280;4950;46.042;14.472;2024-02-04T11:34:32;98497.44;;;13.50;53.27
9822;BME280;4950;46.042;14.472;2024-02-04T11:36:59;98496.47;;;13.66;52.87
9822;BME280;4950;46.042;14.472;2024-02-04T11:39:26;98491.28;;;13.81;51.21
9822;BME280;4950;46.042;14.472;2024-02-04T11:41:53;98486.66;;;13.98;50.40
9822;BME280;4950;46.042;14.472;2024-02-04T11:44:21;98489.09;;;14.14;50.06
9822;BME280;4950;46.042;14.472;2024-02-04T11:46:49;98477.16;;;14.41;49.40
9822;BME280;4950;46.042;14.472;2024-02-04T11:49:17;98474.78;;;14.61;49.19
9822;BME280;4950;46.042;14.472;2024-02-04T11:51:45;98473.91;;;14.76;48.47
9822;BME280;4950;46.042;14.472;2024-02-04T11:54:14;98473.69;;;14.92;47.80
9822;BME280;4950;46.042;14.472;2024-02-04T11:56:43;98470.44;;;15.12;47.33
9822;BME280;4950;46.042;14.472;2024-02-04T11:59:11;98476.81;;;15.31;47.03
9822;BME280;4950;46.042;14.472;2024-02-04T12:01:39;98471.69;;;15.44;46.51
9822;BME280;4950;46.042;14.472;2024-02-04T12:04:12;98469.13;;;15.51;46.09
9822;BME280;4950;46.042;14.472;2024-02-04T12:06:40;98470.97;;;15.57;45.69
9822;BME280;4950;46.042;14.472;2024-02-04T12:09:08;98468.72;;;15.54;44.88
9822;BME280;4950;46.042;14.472;2024-02-04T12:11:36;98458.97;;;15.69;44.79
9822;BME280;4950;46.042;14.472;2024-02-04T12:14:03;98454.28;;;15.86;44.80
9822;BME280;4950;46.042;14.472;2024-02-04T12:16:31;98451.75;;;16.06;44.32
9822;BME280;4950;46.042;14.472;2024-02-04T12:19:01;98452.81;;;16.25;43.84
9822;BME280;4950;46.042;14.472;2024-02-04T12:21:30;98446.84;;;16.45;42.91
9822;BME280;4950;46.042;14.472;2024-02-04T12:23:58;98449.09;;;16.61;43.11
9822;BME280;4950;46.042;14.472;2024-02-04T12:26:25;98460.81;;;16.78;43.06
9822;BME280;4950;46.042;14.472;2024-02-04T12:28:52;98446.94;;;16.98;42.59
9822;BME280;4950;46.042;14.472;2024-02-04T12:31:19;98441.28;;;17.08;41.27
9822;BME280;4950;46.042;14.472;2024-02-04T12:33:53;98437.25;;;17.05;41.03
9822;BME280;4950;46.042;14.472;2024-02-04T12:36:23;98427.97;;;17.09;41.09
9822;BME280;4950;46.042;14.472;2024-02-04T12:38:53;98428.56;;;17.31;41.10
9822;BME280;4950;46.042;14.472;2024-02-04T12:41:21;98430.72;;;17.68;41.20
9822;BME280;4950;46.042;14.472;2024-02-04T12:43:53;98423.41;;;17.76;40.61
9822;BME280;4950;46.042;14.472;2024-02-04T12:46:20;98423.22;;;17.85;40.36
9822;BME280;4950;46.042;14.472;2024-02-04T12:48:51;98422.56;;;18.03;40.24
9822;BME280;4950;46.042;14.472;2024-02-04T12:51:23;98415.19;;;18.18;39.72
9822;BME280;4950;46.042;14.472;2024-02-04T12:53:50;98410.38;;;18.15;39.98
9822;BME280;4950;46.042;14.472;2024-02-04T12:56:39;98404.31;;;18.14;39.76
9822;BME280;4950;46.042;14.472;2024-02-04T12:59:06;98399.06;;;18.14;40.37
9822;BME280;4950;46.042;14.472;2024-02-04T13:01:33;98385.03;;;18.27;39.89
9822;BME280;4950;46.042;14.472;2024-02-04T13:04:00;98385.41;;;18.31;39.50
9822;BME280;4950;46.042;14.472;2024-02-04T13:06:27;98384.78;;;18.35;39.72
9822;BME280;4950;46.042;14.472;2024-02-04T13:08:54;98382.47;;;18.14;39.84
9822;BME280;4950;46.042;14.472;2024-02-04T13:11:23;98376.53;;;18.25;40.47
9822;BME280;4950;46.042;14.472;2024-02-04T13:13:51;98375.28;;;18.34;40.29
9822;BME280;4950;46.042;14.472;2024-02-04T13:16:18;98372.19;;;18.44;39.94
9822;BME280;4950;46.042;14.472;2024-02-04T13:18:51;98376.59;;;18.50;39.47
9822;BME280;4950;46.042;14.472;2024-02-04T13:21:18;98369.47;;;18.58;39.42
9822;BME280;4950;46.042;14.472;2024-02-04T13:23:47;98358.84;;;18.71;39.11